Time;durP1;ratioP1;P1;durP2;ratioP2;P2;SDS_P1;SDS_P2;PMS_P1;PMS_P2;Temp;Humidity;BMP_temperature;BMP_pressure;BME280_temperature;BME280_humidity;BME280_pressure;Samples;Min_cycle;Max_cycle;Signal;HPM_P1;HPM_P2
2022/04/02 00:00:01;;;;;;;;;5.33;3.00;;;;;;;;5096849;27;45496;-69
2022/04/02 00:02:26;;;;;;;;;3.00;3.00;;;;;;;;5098489;27;45295;-69
2022/04/02 00:04:51;;;;;;;;;5.33;3.00;;;;;;;;5097089;27;46487;-69
2022/04/02 00:07:16;;;;;;;;;5.00;5.00;;;;;;;;5098076;27;45327;-69
2022/04/02 00:09:42;;;;;;;;;6.00;6.00;;;;;;;;5098540;27;45338;-69
2022/04/02 00:12:08;;;;;;;;;3.33;2.67;;;;;;;;5098577;27;45404;-69
2022/04/02 00:14:34;;;;;;;;;2.67;2.67;;;;;;;;5098059;27;46609;-69
2022/04/02 00:16:59;;;;;;;;;3.00;3.00;;;;;;;;5097667;27;45372;-69
2022/04/02 00:19:24;;;;;;;;;2.00;2.00;;;;;;;;5098266;27;45359;-69
2022/04/02 00:21:49;;;;;;;;;6.00;2.00;;;;;;;;5098197;27;45409;-69
2022/04/02 00:24:15;;;;;;;;;3.33;3.33;;;;;;;;5078131;27;47267;-69
2022/04/02 00:26:40;;;;;;;;;8.00;6.00;;;;;;;;5098012;27;45736;-69
2022/04/02 00:29:07;;;;;;;;;5.33;5.00;;;;;;;;5097847;27;45359;-69
2022/04/02 00:31:32;;;;;;;;;2.67;2.67;;;;;;;;5084079;27;45414;-69
2022/04/02 00:33:57;;;;;;;;;5.67;5.00;;;;;;;;5085053;27;45381;-69
2022/04/02 00:36:23;;;;;;;;;6.33;4.67;;;;;;;;5085671;27;45291;-69
2022/04/02 00:38:48;;;;;;;;;5.33;3.00;;;;;;;;5080330;28;45520;-70
2022/04/02 00:41:14;;;;;;;;;7.67;5.00;;;;;;;;5080845;27;45686;-70
2022/04/02 00:43:42;;;;;;;;;6.00;4.00;;;;;;;;5079303;28;45517;-70
2022/04/02 00:46:08;;;;;;;;;3.00;3.00;;;;;;;;5079230;28;45376;-71
2022/04/02 00:48:33;;;;;;;;;4.33;4.33;;;;;;;;5079511;28;45396;-71
2022/04/02 00:51:01;;;;;;;;;3.00;3.00;;;;;;;;5079396;28;45333;-71
2022/04/02 00:53:46;;;;;;;;;6.67;5.33;;;;;;;;5078832;28;46679;-71
2022/04/02 00:56:12;;;;;;;;;8.00;3.67;;;;;;;;5079057;28;45393;-71
2022/04/02 00:58:39;;;;;;;;;7.00;6.00;;;;;;;;5075018;28;45489;-71
2022/04/02 01:01:04;;;;;;;;;3.33;3.33;;;;;;;;5078786;28;45610;-71
2022/04/02 01:03:29;;;;;;;;;3.67;3.00;;;;;;;;5078087;28;48307;-71
2022/04/02 01:05:54;;;;;;;;;5.00;3.00;;;;;;;;5079134;28;45320;-71
2022/04/02 01:08:20;;;;;;;;;2.67;2.67;;;;;;;;5078488;28;45409;-71
2022/04/02 01:10:45;;;;;;;;;5.00;3.00;;;;;;;;5078999;28;45415;-71
2022/04/02 01:13:10;;;;;;;;;5.00;5.00;;;;;;;;5079033;28;46015;-71
2022/04/02 01:15:36;;;;;;;;;3.67;3.00;;;;;;;;5078633;28;45420;-71
2022/04/02 01:18:02;;;;;;;;;6.67;3.00;;;;;;;;5061728;28;45426;-71
2022/04/02 01:20:28;;;;;;;;;3.00;3.00;;;;;;;;5080268;28;45635;-71
2022/04/02 01:22:54;;;;;;;;;3.67;3.00;;;;;;;;5079726;28;47272;-71
2022/04/02 01:25:19;;;;;;;;;6.00;6.00;;;;;;;;5061333;28;45385;-71
2022/04/02 01:27:45;;;;;;;;;5.67;3.33;;;;;;;;5080551;28;45442;-71
2022/04/02 01:30:11;;;;;;;;;5.67;3.00;;;;;;;;5080270;28;45363;-72
2022/04/02 01:32:36;;;;;;;;;5.00;5.00;;;;;;;;5080084;28;47240;-71
2022/04/02 01:35:01;;;;;;;;;5.33;4.33;;;;;;;;5080200;28;45300;-72
2022/04/02 01:37:26;;;;;;;;;7.00;6.00;;;;;;;;5080189;28;45408;-71
2022/04/02 01:39:51;;;;;;;;;7.00;3.00;;;;;;;;5079928;28;45222;-71
2022/04/02 01:42:24;;;;;;;;;3.00;3.00;;;;;;;;5080182;28;46515;-71
2022/04/02 01:44:51;;;;;;;;;2.67;2.67;;;;;;;;5079924;28;45567;-71
2022/04/02 01:47:17;;;;;;;;;5.67;5.67;;;;;;;;5079726;28;45280;-71
2022/04/02 01:49:42;;;;;;;;;5.00;5.00;;;;;;;;5080406;28;45296;-71
2022/04/02 01:52:08;;;;;;;;;5.67;5.67;;;;;;;;5079345;28;45697;-71
2022/04/02 01:54:33;;;;;;;;;6.00;6.00;;;;;;;;5079925;28;45195;-71
2022/04/02 01:56:58;;;;;;;;;6.67;5.67;;;;;;;;5080558;28;45423;-71
2022/04/02 01:59:23;;;;;;;;;8.33;7.00;;;;;;;;5080043;28;45328;-71
2022/04/02 02:01:48;;;;;;;;;7.00;3.67;;;;;;;;5079468;28;46448;-71
2022/04/02 02:04:14;;;;;;;;;6.00;5.67;;;;;;;;5079870;28;45220;-71
2022/04/02 02:06:40;;;;;;;;;6.00;3.67;;;;;;;;5079879;28;45187;-70
2022/04/02 02:09:06;;;;;;;;;6.00;5.67;;;;;;;;5079971;28;45540;-71
2022/04/02 02:11:31;;;;;;;;;9.33;5.67;;;;;;;;5079519;28;47136;-71
2022/04/02 02:13:58;;;;;;;;;8.67;4.67;;;;;;;;5079551;28;45515;-71
2022/04/02 02:16:23;;;;;;;;;5.00;2.00;;;;;;;;5079296;28;45367;-71
2022/04/02 02:18:48;;;;;;;;;5.67;5.00;;;;;;;;5079860;28;45385;-71
2022/04/02 02:21:13;;;;;;;;;6.33;3.67;;;;;;;;5079607;28;46665;-71
2022/04/02 02:23:39;;;;;;;;;6.67;4.33;;;;;;;;5079372;28;45320;-72
2022/04/02 02:26:04;;;;;;;;;5.00;5.00;;;;;;;;5079101;28;45317;-72
2022/04/02 02:28:29;;;;;;;;;7.00;4.33;;;;;;;;5079552;28;45470;-72
2022/04/02 02:30:55;;;;;;;;;5.00;5.00;;;;;;;;5079074;28;46393;-72
2022/04/02 02:36:04;;;;;;;;;8.00;6.00;;;;;;;;5079403;28;45336;-71
2022/04/02 02:38:29;;;;;;;;;8.67;6.00;;;;;;;;5079389;28;45351;-71
2022/04/02 02:40:54;;;;;;;;;6.67;5.33;;;;;;;;5078852;28;45504;-71
2022/04/02 02:43:20;;;;;;;;;3.00;3.00;;;;;;;;5079097;28;45280;-72
2022/04/02 02:45:45;;;;;;;;;6.00;5.00;;;;;;;;5079073;28;45507;-71
2022/04/02 02:48:11;;;;;;;;;7.33;5.00;;;;;;;;5079407;28;45256;-71
2022/04/02 02:50:36;;;;;;;;;7.00;6.00;;;;;;;;5078784;28;46411;-73
2022/04/02 02:53:02;;;;;;;;;6.00;6.00;;;;;;;;5078955;28;45344;-72
2022/04/02 02:55:28;;;;;;;;;7.00;5.33;;;;;;;;5078589;28;45438;-75
2022/04/02 02:57:53;;;;;;;;;5.00;5.00;;;;;;;;5078787;27;45207;-73
2022/04/02 03:00:21;;;;;;;;;8.00;6.00;;;;;;;;5078555;28;46675;-71
2022/04/02 03:02:46;;;;;;;;;5.67;5.67;;;;;;;;5078705;28;45313;-72
2022/04/02 03:05:14;;;;;;;;;5.00;5.00;;;;;;;;5078958;28;45382;-70
2022/04/02 03:07:48;;;;;;;;;6.00;5.00;;;;;;;;5078582;28;45466;-71
2022/04/02 03:10:13;;;;;;;;;3.00;3.00;;;;;;;;5078486;28;46281;-71
2022/04/02 03:12:38;;;;;;;;;10.00;5.00;;;;;;;;5078531;28;45340;-71
2022/04/02 03:15:04;;;;;;;;;10.00;5.00;;;;;;;;5078267;28;45544;-73
2022/04/02 03:17:30;;;;;;;;;7.33;5.00;;;;;;;;5079025;28;45410;-70
2022/04/02 03:19:55;;;;;;;;;7.00;2.00;;;;;;;;5078156;28;45402;-71
2022/04/02 03:22:21;;;;;;;;;5.67;3.00;;;;;;;;5078155;28;45389;-70
2022/04/02 03:24:47;;;;;;;;;7.00;2.67;;;;;;;;5078653;28;45299;-70
2022/04/02 03:27:12;;;;;;;;;6.00;3.00;;;;;;;;5078402;28;45470;-70
2022/04/02 03:29:37;;;;;;;;;8.67;6.00;;;;;;;;5078087;28;45511;-70
2022/04/02 03:32:02;;;;;;;;;11.67;5.00;;;;;;;;5078241;28;45210;-70
2022/04/02 03:34:28;;;;;;;;;5.00;5.00;;;;;;;;5078509;28;45531;-70
2022/04/02 03:36:53;;;;;;;;;6.00;4.33;;;;;;;;5078785;28;45217;-71
2022/04/02 03:39:18;;;;;;;;;7.67;6.00;;;;;;;;5059885;28;47471;-71
2022/04/02 03:41:44;;;;;;;;;11.33;3.67;;;;;;;;5077996;28;45229;-71
2022/04/02 03:44:09;;;;;;;;;3.00;3.00;;;;;;;;5078343;28;45183;-71
2022/04/02 03:49:19;;;;;;;;;13.00;4.33;;;;;;;;5078099;28;45282;-71
2022/04/02 03:51:44;;;;;;;;;6.00;5.00;;;;;;;;5077702;28;45439;-71
2022/04/02 03:54:09;;;;;;;;;3.00;3.00;;;;;;;;5078027;28;45244;-71
2022/04/02 03:56:35;;;;;;;;;6.33;3.00;;;;;;;;5078496;28;45371;-71
2022/04/02 03:59:00;;;;;;;;;5.00;5.00;;;;;;;;5077904;28;46242;-71
2022/04/02 04:01:26;;;;;;;;;6.00;3.00;;;;;;;;5077343;28;45482;-71
2022/04/02 04:03:51;;;;;;;;;4.33;4.33;;;;;;;;5064724;28;45411;-73
2022/04/02 04:06:16;;;;;;;;;7.00;5.00;;;;;;;;5068671;28;45464;-74
2022/04/02 04:08:41;;;;;;;;;5.00;3.00;;;;;;;;5076709;28;46325;-74
2022/04/02 04:11:07;;;;;;;;;5.00;5.00;;;;;;;;5077517;28;45365;-74
2022/04/02 04:13:32;;;;;;;;;6.00;6.00;;;;;;;;5077870;28;45406;-72
2022/04/02 04:16:00;;;;;;;;;6.00;6.00;;;;;;;;5077802;28;45285;-73
2022/04/02 04:18:26;;;;;;;;;6.00;6.00;;;;;;;;5077105;28;46522;-73
2022/04/02 04:20:54;;;;;;;;;10.00;6.33;;;;;;;;5077684;28;45310;-75
2022/04/02 04:23:22;;;;;;;;;8.00;6.33;;;;;;;;5077367;28;45281;-70
2022/04/02 04:25:47;;;;;;;;;10.33;5.67;;;;;;;;5077925;28;45532;-70
2022/04/02 04:28:12;;;;;;;;;6.00;6.00;;;;;;;;5077623;28;45316;-70
2022/04/02 04:30:38;;;;;;;;;6.00;4.33;;;;;;;;5077138;28;45427;-69
2022/04/02 04:33:03;;;;;;;;;3.00;3.00;;;;;;;;5059444;28;45336;-72
2022/04/02 04:35:29;;;;;;;;;10.67;5.67;;;;;;;;5077716;28;45439;-72
2022/04/02 04:37:54;;;;;;;;;4.33;3.00;;;;;;;;5077281;28;46434;-73
2022/04/02 04:40:19;;;;;;;;;7.67;5.00;;;;;;;;5077417;28;45498;-73
2022/04/02 04:42:44;;;;;;;;;4.33;4.33;;;;;;;;5077445;28;45346;-73
2022/04/02 04:45:10;;;;;;;;;5.67;2.00;;;;;;;;5077398;28;45385;-74
2022/04/02 04:47:36;;;;;;;;;8.33;5.00;;;;;;;;5076894;28;46630;-74
2022/04/02 04:50:02;;;;;;;;;5.00;5.00;;;;;;;;5077342;28;45350;-71
2022/04/02 04:52:27;;;;;;;;;6.33;5.00;;;;;;;;5077021;28;45400;-71
2022/04/02 04:54:52;;;;;;;;;7.33;5.00;;;;;;;;5077418;28;45470;-71
2022/04/02 04:57:18;;;;;;;;;5.00;4.33;;;;;;;;5076996;28;46748;-71
2022/04/02 04:59:43;;;;;;;;;3.00;3.00;;;;;;;;5076854;28;45446;-71
2022/04/02 05:02:08;;;;;;;;;3.00;3.00;;;;;;;;5077069;28;45446;-71
2022/04/02 05:04:34;;;;;;;;;4.33;4.33;;;;;;;;5077279;28;45198;-70
2022/04/02 05:06:59;;;;;;;;;5.00;5.00;;;;;;;;5076867;28;46900;-70
2022/04/02 05:09:24;;;;;;;;;5.67;5.00;;;;;;;;5058681;28;45224;-71
2022/04/02 05:11:50;;;;;;;;;5.00;4.33;;;;;;;;5077129;28;45361;-71
2022/04/02 05:14:16;;;;;;;;;5.00;5.00;;;;;;;;5077250;28;45458;-70
2022/04/02 05:16:42;;;;;;;;;5.00;3.00;;;;;;;;5076611;28;46681;-70
2022/04/02 05:19:07;;;;;;;;;5.67;5.00;;;;;;;;5076865;28;45287;-70
2022/04/02 05:21:32;;;;;;;;;5.67;5.67;;;;;;;;5080708;28;45415;-70
2022/04/02 05:23:57;;;;;;;;;6.33;5.00;;;;;;;;5080190;28;45311;-70
2022/04/02 05:26:23;;;;;;;;;10.00;5.33;;;;;;;;5079323;28;46482;-69
2022/04/02 05:28:48;;;;;;;;;6.33;6.33;;;;;;;;5079614;28;45514;-68
2022/04/02 05:31:13;;;;;;;;;9.67;6.00;;;;;;;;5079319;27;45422;-70
2022/04/02 05:33:38;;;;;;;;;11.00;8.33;;;;;;;;5080419;28;45272;-68
2022/04/02 05:36:05;;;;;;;;;11.67;7.00;;;;;;;;5079719;28;46634;-68
2022/04/02 05:38:31;;;;;;;;;8.33;7.00;;;;;;;;5080004;28;45416;-69
2022/04/02 05:40:56;;;;;;;;;8.00;5.67;;;;;;;;5080203;28;45254;-69
2022/04/02 05:43:22;;;;;;;;;9.67;6.00;;;;;;;;5080254;28;45414;-70
2022/04/02 05:45:47;;;;;;;;;7.67;7.00;;;;;;;;5079438;28;45417;-70
2022/04/02 05:48:12;;;;;;;;;10.00;8.67;;;;;;;;5079736;28;45365;-69
2022/04/02 05:50:37;;;;;;;;;9.67;6.00;;;;;;;;5078206;28;45284;-71
2022/04/02 05:53:03;;;;;;;;;9.00;6.33;;;;;;;;5064227;28;45391;-69
2022/04/02 05:55:28;;;;;;;;;9.00;9.00;;;;;;;;5079207;28;45493;-69
2022/04/02 05:57:53;;;;;;;;;8.67;7.00;;;;;;;;5079479;28;45556;-69
2022/04/02 06:00:18;;;;;;;;;10.00;6.00;;;;;;;;5079576;28;45299;-69
2022/04/02 06:02:44;;;;;;;;;11.00;7.00;;;;;;;;5079295;28;45467;-69
2022/04/02 06:05:10;;;;;;;;;7.67;7.67;;;;;;;;5078389;28;46210;-69
2022/04/02 06:07:35;;;;;;;;;11.33;7.33;;;;;;;;5079391;27;45272;-69
2022/04/02 06:10:02;;;;;;;;;11.00;7.00;;;;;;;;5079309;27;45462;-69
2022/04/02 06:12:28;;;;;;;;;10.33;10.00;;;;;;;;5079581;27;45528;-69
2022/04/02 06:14:53;;;;;;;;;11.00;8.67;;;;;;;;5079415;27;45453;-69
2022/04/02 06:17:19;;;;;;;;;17.50;10.50;;;;;;;;5078904;27;45459;-70
2022/04/02 06:19:44;;;;;;;;;16.00;10.00;;;;;;;;5079338;28;45459;-69
2022/04/02 06:22:09;;;;;;;;;8.33;8.33;;;;;;;;5079321;28;45566;-69
2022/04/02 06:24:35;;;;;;;;;12.00;12.00;;;;;;;;5079164;28;45516;-69
2022/04/02 06:27:00;;;;;;;;;12.00;11.00;;;;;;;;5079050;28;45231;-68
2022/04/02 06:29:25;;;;;;;;;11.33;9.67;;;;;;;;5079356;28;45368;-69
2022/04/02 06:31:50;;;;;;;;;10.00;7.33;;;;;;;;5078308;28;45299;-69
2022/04/02 06:34:16;;;;;;;;;9.67;7.67;;;;;;;;5078772;28;45435;-69
2022/04/02 06:36:41;;;;;;;;;11.00;11.00;;;;;;;;5078857;28;45580;-69
2022/04/02 06:39:06;;;;;;;;;9.67;8.67;;;;;;;;5079024;28;45388;-69
2022/04/02 06:41:32;;;;;;;;;8.00;8.00;;;;;;;;5079144;28;45299;-69
2022/04/02 06:43:57;;;;;;;;;13.33;10.67;;;;;;;;5078528;28;45411;-69
2022/04/02 06:46:22;;;;;;;;;10.33;8.00;;;;;;;;5078697;28;45486;-69
2022/04/02 06:48:47;;;;;;;;;11.33;9.33;;;;;;;;5079095;28;45524;-69
2022/04/02 06:51:13;;;;;;;;;9.00;8.00;;;;;;;;5079203;28;45372;-69
2022/04/02 06:53:39;;;;;;;;;10.67;8.00;;;;;;;;5078578;28;47342;-69
2022/04/02 06:56:04;;;;;;;;;9.00;9.00;;;;;;;;5078707;28;45438;-69
2022/04/02 06:58:33;;;;;;;;;8.00;8.00;;;;;;;;5079020;28;45318;-68
2022/04/02 07:00:59;;;;;;;;;12.33;10.67;;;;;;;;5078583;28;45343;-68
2022/04/02 07:03:24;;;;;;;;;7.00;5.00;;;;;;;;5078720;28;45508;-68
2022/04/02 07:05:49;;;;;;;;;11.33;9.67;;;;;;;;5078596;28;45327;-68
2022/04/02 07:08:15;;;;;;;;;9.00;8.00;;;;;;;;5078947;28;45346;-69
2022/04/02 07:10:40;;;;;;;;;8.33;8.33;;;;;;;;5078253;28;45374;-70
2022/04/02 07:13:05;;;;;;;;;9.00;9.00;;;;;;;;5078499;28;46486;-70
2022/04/02 07:15:30;;;;;;;;;7.00;7.00;;;;;;;;5078594;28;45413;-71
2022/04/02 07:17:56;;;;;;;;;10.00;8.00;;;;;;;;5078428;28;45382;-71
2022/04/02 07:20:26;;;;;;;;;10.33;7.00;;;;;;;;5078894;28;45304;-71
2022/04/02 07:22:51;;;;;;;;;10.33;7.33;;;;;;;;5078628;28;45698;-71
2022/04/02 07:25:18;;;;;;;;;8.33;6.00;;;;;;;;5078218;28;45449;-70
2022/04/02 07:27:44;;;;;;;;;8.33;6.67;;;;;;;;5078557;28;45391;-70
2022/04/02 07:30:11;;;;;;;;;2.67;2.67;;;;;;;;5078078;28;45424;-69
2022/04/02 07:32:36;;;;;;;;;5.33;5.33;;;;;;;;5077835;28;47166;-70
2022/04/02 07:35:01;;;;;;;;;8.00;4.00;;;;;;;;5078315;28;45349;-70
2022/04/02 07:37:45;;;;;;;;;8.33;8.33;;;;;;;;5078127;28;45441;-70
2022/04/02 07:40:10;;;;;;;;;8.00;5.67;;;;;;;;5078302;28;45403;-70
2022/04/02 07:42:46;;;;;;;;;4.00;4.00;;;;;;;;5077831;28;46141;-70
2022/04/02 07:45:13;;;;;;;;;7.00;5.67;;;;;;;;5077645;28;45392;-70
2022/04/02 07:47:39;;;;;;;;;7.00;6.33;;;;;;;;5077661;28;45333;-71
2022/04/02 07:50:06;;;;;;;;;5.33;4.00;;;;;;;;5078432;28;45167;-72
2022/04/02 07:52:32;;;;;;;;;5.67;5.00;;;;;;;;5077645;28;45486;-70
2022/04/02 07:54:58;;;;;;;;;4.00;4.00;;;;;;;;5059717;28;45324;-69
2022/04/02 07:57:49;;;;;;;;;13.00;5.00;;;;;;;;5078298;28;45332;-72
2022/04/02 08:00:16;;;;;;;;;5.00;3.00;;;;;;;;5074678;28;45475;-69
2022/04/02 08:02:43;;;;;;;;;3.00;3.00;;;;;;;;5076980;28;46752;-70
2022/04/02 08:05:10;;;;;;;;;5.00;5.00;;;;;;;;5077893;28;45482;-69
2022/04/02 08:07:37;;;;;;;;;4.00;4.00;;;;;;;;5077575;28;45382;-69
2022/04/02 08:10:05;;;;;;;;;8.00;5.00;;;;;;;;5077966;28;45410;-70
2022/04/02 08:12:32;;;;;;;;;6.67;3.33;;;;;;;;5077245;28;45789;-70
2022/04/02 08:14:58;;;;;;;;;3.00;3.00;;;;;;;;5078281;27;45811;-69
2022/04/02 08:17:23;;;;;;;;;3.00;2.67;;;;;;;;5080725;27;45390;-69
2022/04/02 08:19:49;;;;;;;;;3.00;3.00;;;;;;;;5077869;28;45802;-69
2022/04/02 08:22:16;;;;;;;;;5.00;4.00;;;;;;;;5077087;27;46383;-72
2022/04/02 08:24:42;;;;;;;;;4.33;4.33;;;;;;;;5077602;28;45369;-72
2022/04/02 08:27:25;;;;;;;;;7.00;4.00;;;;;;;;5077345;28;45351;-69
2022/04/02 08:30:02;;;;;;;;;5.00;3.33;;;;;;;;5077714;28;45431;-72
2022/04/02 08:32:46;;;;;;;;;5.00;5.00;;;;;;;;5077251;28;45453;-71
2022/04/02 08:35:13;;;;;;;;;5.33;5.00;;;;;;;;5076969;28;45392;-69
2022/04/02 08:37:41;;;;;;;;;6.67;6.67;;;;;;;;5077012;28;45460;-72
2022/04/02 08:40:11;;;;;;;;;4.33;4.33;;;;;;;;5077287;28;45469;-72
2022/04/02 08:43:02;;;;;;;;;6.67;5.00;;;;;;;;5077242;28;45232;-69
2022/04/02 08:45:32;;;;;;;;;7.00;6.00;;;;;;;;5077129;28;45427;-69
2022/04/02 08:48:16;;;;;;;;;11.67;6.00;;;;;;;;5076833;28;45446;-69
2022/04/02 08:50:44;;;;;;;;;4.67;4.67;;;;;;;;5077208;28;45455;-72
2022/04/02 08:53:20;;;;;;;;;8.67;8.67;;;;;;;;5076750;28;45322;-72
2022/04/02 08:55:49;;;;;;;;;5.67;5.67;;;;;;;;5079382;28;45246;-72
2022/04/02 08:58:25;;;;;;;;;7.00;5.67;;;;;;;;5080843;28;45325;-71
2022/04/02 09:01:03;;;;;;;;;7.33;7.00;;;;;;;;5080836;28;45359;-71
2022/04/02 09:03:42;;;;;;;;;7.00;7.00;;;;;;;;5080375;28;45260;-71
2022/04/02 09:06:07;;;;;;;;;8.67;6.67;;;;;;;;5080076;28;45381;-71
2022/04/02 09:08:38;;;;;;;;;8.67;8.00;;;;;;;;5080980;28;45683;-71
2022/04/02 09:11:10;;;;;;;;;6.33;5.00;;;;;;;;5081011;28;45272;-69
2022/04/02 09:13:44;;;;;;;;;6.00;6.00;;;;;;;;5080156;28;47504;-71
2022/04/02 09:16:20;;;;;;;;;7.33;7.33;;;;;;;;5080242;28;45833;-72
2022/04/02 09:19:10;;;;;;;;;5.33;5.33;;;;;;;;5060105;28;45473;-69
2022/04/02 09:21:44;;;;;;;;;7.00;7.00;;;;;;;;5060468;28;45397;-71
2022/04/02 09:24:38;;;;;;;;;5.00;5.00;;;;;;;;5080451;27;46595;-71
2022/04/02 09:27:06;;;;;;;;;6.33;5.00;;;;;;;;5057350;28;45394;-70
2022/04/02 09:29:41;;;;;;;;;8.00;5.00;;;;;;;;5046433;28;45280;-70
2022/04/02 09:32:24;;;;;;;;;8.67;7.33;;;;;;;;5037746;28;45307;-70
2022/04/02 09:34:49;;;;;;;;;4.00;4.00;;;;;;;;5037288;28;46536;-70
2022/04/02 09:37:26;;;;;;;;;7.67;6.00;;;;;;;;5037399;28;45267;-70
2022/04/02 09:40:02;;;;;;;;;6.00;4.00;;;;;;;;5037657;28;45397;-70
2022/04/02 09:42:27;;;;;;;;;4.67;4.33;;;;;;;;5046313;28;45636;-70
2022/04/02 09:44:58;;;;;;;;;5.00;5.00;;;;;;;;5037462;28;46491;-70
2022/04/02 09:47:32;;;;;;;;;4.00;4.00;;;;;;;;5037165;28;45356;-70
2022/04/02 09:50:07;;;;;;;;;4.67;4.67;;;;;;;;5037178;28;45376;-70
2022/04/02 09:52:35;;;;;;;;;13.33;10.00;;;;;;;;5037357;28;45356;-70
2022/04/02 09:55:03;;;;;;;;;5.33;4.67;;;;;;;;5036936;28;45293;-70
2022/04/02 09:57:36;;;;;;;;;8.00;5.67;;;;;;;;5036939;28;45562;-69
2022/04/02 10:00:06;;;;;;;;;7.00;7.00;;;;;;;;5036192;28;45395;-70
2022/04/02 10:02:34;;;;;;;;;9.33;6.00;;;;;;;;5039831;28;45324;-70
2022/04/02 10:05:04;;;;;;;;;6.67;6.67;;;;;;;;5059000;28;46100;-70
2022/04/02 10:07:29;;;;;;;;;5.00;5.00;;;;;;;;5071685;27;45625;-70
2022/04/02 10:09:55;;;;;;;;;10.00;7.00;;;;;;;;5080699;27;45379;-71
2022/04/02 10:12:23;;;;;;;;;7.67;6.00;;;;;;;;5079257;28;45316;-71
2022/04/02 10:14:55;;;;;;;;;7.67;7.00;;;;;;;;5081245;27;47577;-71
2022/04/02 10:17:25;;;;;;;;;6.00;5.00;;;;;;;;5078596;28;45438;-69
2022/04/02 10:19:53;;;;;;;;;8.67;5.67;;;;;;;;5078446;28;45489;-68
2022/04/02 10:22:18;;;;;;;;;7.00;6.00;;;;;;;;5081559;27;47078;-69
2022/04/02 10:24:46;;;;;;;;;7.33;6.00;;;;;;;;5079512;27;47661;-69
2022/04/02 10:27:13;;;;;;;;;5.00;5.00;;;;;;;;5077717;28;45422;-70
2022/04/02 10:29:51;;;;;;;;;9.00;7.67;;;;;;;;5076949;28;45519;-69
2022/04/02 10:32:36;;;;;;;;;9.00;9.00;;;;;;;;5077641;28;45430;-69
2022/04/02 10:35:05;;;;;;;;;6.00;5.00;;;;;;;;5078425;28;45391;-70
2022/04/02 10:37:39;;;;;;;;;6.00;6.00;;;;;;;;5077835;28;45826;-67
2022/04/02 10:40:07;;;;;;;;;6.00;6.00;;;;;;;;5078772;28;45353;-67
2022/04/02 10:42:34;;;;;;;;;10.67;6.00;;;;;;;;5078678;28;45414;-70
2022/04/02 10:45:00;;;;;;;;;5.00;5.00;;;;;;;;5078352;28;46169;-70
2022/04/02 10:47:28;;;;;;;;;5.67;5.67;;;;;;;;5078014;28;45525;-71
2022/04/02 10:49:59;;;;;;;;;4.00;4.00;;;;;;;;5078344;27;46385;-68
2022/04/02 10:52:26;;;;;;;;;4.00;4.00;;;;;;;;5078280;27;45382;-71
2022/04/02 10:54:51;;;;;;;;;8.67;6.00;;;;;;;;5078122;27;47051;-69
2022/04/02 10:57:17;;;;;;;;;4.00;4.00;;;;;;;;5077922;27;45407;-68
2022/04/02 10:59:45;;;;;;;;;4.67;4.67;;;;;;;;5078419;28;45315;-69
2022/04/02 11:02:21;;;;;;;;;6.67;5.00;;;;;;;;5078388;28;45446;-69
2022/04/02 11:04:49;;;;;;;;;4.00;4.00;;;;;;;;5077270;28;46198;-69
2022/04/02 11:07:25;;;;;;;;;5.00;5.00;;;;;;;;5078020;27;45327;-69
2022/04/02 11:09:52;;;;;;;;;6.67;5.00;;;;;;;;5078483;27;45553;-69
2022/04/02 11:12:19;;;;;;;;;5.67;5.67;;;;;;;;5078347;27;45355;-68
2022/04/02 11:14:45;;;;;;;;;10.33;10.33;;;;;;;;5077884;27;47102;-69
2022/04/02 11:17:27;;;;;;;;;7.00;6.00;;;;;;;;5077240;27;45355;-69
2022/04/02 11:19:56;;;;;;;;;6.00;6.00;;;;;;;;5061394;28;45437;-69
2022/04/02 11:22:29;;;;;;;;;4.00;4.00;;;;;;;;5078144;28;45433;-68
2022/04/02 11:24:57;;;;;;;;;6.67;4.00;;;;;;;;5077759;27;45374;-68
2022/04/02 11:27:24;;;;;;;;;6.00;5.00;;;;;;;;5077428;27;45296;-69
2022/04/02 11:29:50;;;;;;;;;5.33;5.33;;;;;;;;5077847;27;45375;-69
2022/04/02 11:32:22;;;;;;;;;5.00;5.00;;;;;;;;5077759;27;45415;-69
2022/04/02 11:34:48;;;;;;;;;4.33;4.00;;;;;;;;5077035;27;47433;-69
2022/04/02 11:37:15;;;;;;;;;7.67;4.00;;;;;;;;5077623;28;45416;-68
2022/04/02 11:39:46;;;;;;;;;7.00;5.67;;;;;;;;5077261;28;45358;-69
2022/04/02 11:42:13;;;;;;;;;6.00;5.00;;;;;;;;5077590;27;45388;-68
2022/04/02 11:44:38;;;;;;;;;6.00;6.00;;;;;;;;5077214;27;45442;-67
2022/04/02 11:47:07;;;;;;;;;4.33;4.33;;;;;;;;5077049;27;45406;-68
2022/04/02 11:49:32;;;;;;;;;5.00;4.00;;;;;;;;5077398;27;45429;-68
2022/04/02 11:52:05;;;;;;;;;5.00;5.00;;;;;;;;5077648;28;45396;-71
2022/04/02 11:54:31;;;;;;;;;6.67;5.67;;;;;;;;5076791;27;46568;-68
2022/04/02 11:57:10;;;;;;;;;4.33;4.33;;;;;;;;5077317;27;45313;-67
2022/04/02 11:59:48;;;;;;;;;7.00;6.00;;;;;;;;5077482;27;45367;-70
2022/04/02 12:02:32;;;;;;;;;6.00;6.00;;;;;;;;5077072;27;45383;-68
2022/04/02 12:05:01;;;;;;;;;11.67;8.67;;;;;;;;5076593;28;46343;-71
2022/04/02 12:07:37;;;;;;;;;11.33;7.67;;;;;;;;5077190;28;45305;-70
2022/04/02 12:10:02;;;;;;;;;8.33;7.67;;;;;;;;5075803;28;45338;-69
2022/04/02 12:12:28;;;;;;;;;6.33;5.33;;;;;;;;5076925;28;45375;-68
2022/04/02 12:14:58;;;;;;;;;6.33;5.33;;;;;;;;5076722;28;45953;-69
2022/04/02 12:17:31;;;;;;;;;7.33;6.00;;;;;;;;5076853;28;45407;-73
2022/04/02 12:19:56;;;;;;;;;7.00;7.00;;;;;;;;5077075;28;45484;-69
2022/04/02 12:22:22;;;;;;;;;8.00;6.67;;;;;;;;5077336;28;45351;-69
2022/04/02 12:24:48;;;;;;;;;10.33;8.00;;;;;;;;5077026;28;45502;-69
2022/04/02 12:27:21;;;;;;;;;8.00;7.00;;;;;;;;5091538;27;45403;-68
2022/04/02 12:29:48;;;;;;;;;7.00;7.00;;;;;;;;5080077;27;45497;-68
2022/04/02 12:32:16;;;;;;;;;10.00;8.00;;;;;;;;5077030;28;45618;-67
2022/04/02 12:34:42;;;;;;;;;11.33;10.67;;;;;;;;5081303;27;45952;-70
2022/04/02 12:37:07;;;;;;;;;8.00;8.00;;;;;;;;5080717;27;45331;-69
2022/04/02 12:39:33;;;;;;;;;10.00;8.00;;;;;;;;5076166;28;45768;-67
2022/04/02 12:41:58;;;;;;;;;9.00;9.00;;;;;;;;5076805;28;45512;-68
2022/04/02 12:44:23;;;;;;;;;11.00;9.00;;;;;;;;5076719;28;46610;-67
2022/04/02 12:46:49;;;;;;;;;10.33;7.67;;;;;;;;5076594;28;45369;-67
2022/04/02 12:49:31;;;;;;;;;6.67;6.67;;;;;;;;5076851;28;45430;-68
2022/04/02 12:52:12;;;;;;;;;7.00;7.00;;;;;;;;5076304;28;45521;-69
2022/04/02 12:54:41;;;;;;;;;9.00;8.00;;;;;;;;5076436;28;46286;-69
2022/04/02 12:57:10;;;;;;;;;5.67;5.67;;;;;;;;5076534;28;45338;-68
2022/04/02 12:59:40;;;;;;;;;10.67;8.00;;;;;;;;5076586;28;45381;-69
2022/04/02 13:02:05;;;;;;;;;8.00;7.00;;;;;;;;5083934;27;45590;-68
2022/04/02 13:04:31;;;;;;;;;14.67;13.00;;;;;;;;5094228;27;46905;-68
2022/04/02 13:06:58;;;;;;;;;8.00;8.00;;;;;;;;5076655;27;45522;-68
2022/04/02 13:09:30;;;;;;;;;7.67;7.67;;;;;;;;5076287;28;45686;-68
2022/04/02 13:11:57;;;;;;;;;7.33;6.00;;;;;;;;5075984;28;45360;-68
2022/04/02 13:14:49;;;;;;;;;9.00;8.00;;;;;;;;5076053;27;45334;-68
2022/04/02 13:17:14;;;;;;;;;13.00;8.67;;;;;;;;5073542;28;45498;-68
2022/04/02 13:22:27;;;;;;;;;9.00;9.00;;;;;;;;5076505;28;45393;-70
2022/04/02 13:24:54;;;;;;;;;12.00;10.67;;;;;;;;5075619;28;46936;-70
2022/04/02 13:27:30;;;;;;;;;10.33;10.33;;;;;;;;5076010;28;45453;-68
2022/04/02 13:30:02;;;;;;;;;7.33;7.33;;;;;;;;5076282;28;45400;-68
2022/04/02 13:32:47;;;;;;;;;7.00;6.67;;;;;;;;5058232;28;45398;-68
2022/04/02 13:35:31;;;;;;;;;6.33;6.33;;;;;;;;5075942;28;46541;-68
2022/04/02 13:37:57;;;;;;;;;12.00;8.33;;;;;;;;5075388;28;45276;-68
2022/04/02 13:40:24;;;;;;;;;8.00;7.67;;;;;;;;5094582;27;45375;-69
2022/04/02 13:42:50;;;;;;;;;7.00;7.00;;;;;;;;5099850;27;45364;-68
2022/04/02 13:45:16;;;;;;;;;7.67;6.33;;;;;;;;5085543;27;45383;-68
2022/04/02 13:47:43;;;;;;;;;5.67;5.00;;;;;;;;5090445;27;45384;-69
2022/04/02 13:50:10;;;;;;;;;6.00;5.00;;;;;;;;5099295;27;45470;-68
2022/04/02 13:52:37;;;;;;;;;6.00;6.00;;;;;;;;5099953;27;45393;-69
2022/04/02 13:55:02;;;;;;;;;6.67;5.00;;;;;;;;5099829;27;46704;-69
2022/04/02 13:57:31;;;;;;;;;3.67;3.67;;;;;;;;5081617;27;45309;-69
2022/04/02 14:00:08;;;;;;;;;5.33;5.33;;;;;;;;5079431;28;45414;-69
2022/04/02 14:02:34;;;;;;;;;7.33;5.67;;;;;;;;5061430;28;45610;-69
2022/04/02 14:05:18;;;;;;;;;7.00;7.00;;;;;;;;5078632;28;45382;-69
2022/04/02 14:07:58;;;;;;;;;6.00;4.67;;;;;;;;5078239;28;45416;-69
2022/04/02 14:10:23;;;;;;;;;5.00;5.00;;;;;;;;5079016;28;45413;-69
2022/04/02 14:12:49;;;;;;;;;3.00;3.00;;;;;;;;5078458;28;45500;-69
2022/04/02 14:15:14;;;;;;;;;8.33;6.33;;;;;;;;5078310;28;45464;-69
2022/04/02 14:17:44;;;;;;;;;7.33;5.00;;;;;;;;5078859;27;45413;-69
2022/04/02 14:20:11;;;;;;;;;7.00;5.00;;;;;;;;5079317;27;45469;-69
2022/04/02 14:22:51;;;;;;;;;6.67;5.67;;;;;;;;5085235;27;46628;-68
2022/04/02 14:25:34;;;;;;;;;5.33;5.33;;;;;;;;5078007;28;46315;-68
2022/04/02 14:28:25;;;;;;;;;7.00;5.00;;;;;;;;5078865;28;45374;-68
2022/04/02 14:30:50;;;;;;;;;6.67;6.33;;;;;;;;5079013;28;45383;-68
2022/04/02 14:33:17;;;;;;;;;8.33;8.33;;;;;;;;5078951;28;45659;-68
2022/04/02 14:35:42;;;;;;;;;7.67;7.00;;;;;;;;5078614;28;46469;-68
2022/04/02 14:38:29;;;;;;;;;9.67;8.00;;;;;;;;5078158;28;45461;-68
2022/04/02 14:40:54;;;;;;;;;5.00;5.00;;;;;;;;5073267;27;45549;-68
2022/04/02 14:43:19;;;;;;;;;7.67;7.67;;;;;;;;5087156;27;45496;-69
2022/04/02 14:45:59;;;;;;;;;12.00;10.33;;;;;;;;5078448;28;45480;-68
2022/04/02 14:48:35;;;;;;;;;10.33;7.00;;;;;;;;5078270;27;45451;-68
2022/04/02 14:51:06;;;;;;;;;10.67;7.67;;;;;;;;5078202;28;45387;-69
2022/04/02 14:53:50;;;;;;;;;7.33;7.00;;;;;;;;5080842;27;45296;-68